createdAt,value
2018-05-17T00:01:36.517Z,97729.83
2018-05-17T00:04:04.118Z,97729.34
2018-05-17T00:06:31.780Z,97725.93
2018-05-17T00:08:59.392Z,97727.16
2018-05-17T00:11:27.023Z,97731.02
2018-05-17T00:13:54.638Z,97729.78
2018-05-17T00:16:22.235Z,97728.13
2018-05-17T00:18:49.866Z,97733.56
2018-05-17T00:21:17.466Z,97723.13
2018-05-17T00:23:45.210Z,97728.19
2018-05-17T00:26:12.818Z,97731.28
2018-05-17T00:28:40.410Z,97728.70
2018-05-17T00:31:08.071Z,97729.36
2018-05-17T00:33:35.667Z,97726.66
2018-05-17T00:36:03.330Z,97722.84
2018-05-17T00:38:30.911Z,97724.72
2018-05-17T00:40:58.760Z,97724.06
2018-05-17T00:43:26.350Z,97721.53
2018-05-17T00:45:53.948Z,97724.26
2018-05-17T00:48:21.612Z,97719.68
2018-05-17T00:50:49.187Z,97717.40
2018-05-17T00:53:28.466Z,97715.02
2018-05-17T00:55:56.067Z,97716.27
2018-05-17T00:58:23.718Z,97709.17
2018-05-17T01:00:51.312Z,97710.91
2018-05-17T01:03:18.909Z,97708.59
2018-05-17T01:05:46.528Z,97720.73
2018-05-17T01:08:14.123Z,97716.69
2018-05-17T01:10:41.750Z,97718.25
2018-05-17T01:13:09.365Z,97717.16
2018-05-17T01:15:37.016Z,97717.73
2018-05-17T01:18:04.618Z,97718.76
2018-05-17T01:20:32.213Z,97721.77
2018-05-17T01:23:00.706Z,97730.50
2018-05-17T01:25:28.351Z,97724.97
2018-05-17T01:27:55.991Z,97728.64
2018-05-17T01:30:23.583Z,97724.64
2018-05-17T01:32:51.186Z,97728.92
2018-05-17T01:35:18.807Z,97728.59
2018-05-17T01:37:58.221Z,97727.94
2018-05-17T01:40:25.870Z,97727.55
2018-05-17T01:42:53.467Z,97725.33
2018-05-17T01:45:21.062Z,97719.37
2018-05-17T01:47:48.703Z,97711.56
2018-05-17T01:50:16.303Z,97715.47
2018-05-17T01:52:43.926Z,97717.82
2018-05-17T01:55:11.520Z,97721.46
2018-05-17T01:57:39.425Z,97728.55
2018-05-17T02:00:07.042Z,97722.41
2018-05-17T02:02:34.690Z,97718.19
2018-05-17T02:05:02.308Z,97725.34
2018-05-17T02:07:29.913Z,97722.69
2018-05-17T02:09:57.542Z,97719.64
2018-05-17T02:12:25.160Z,97712.83
2018-05-17T02:14:52.962Z,97716.84
2018-05-17T02:17:20.559Z,97708.38
2018-05-17T02:19:48.172Z,97708.36
2018-05-17T02:22:15.860Z,97715.18
2018-05-17T02:24:43.466Z,97716.30
2018-05-17T02:27:11.087Z,97716.56
2018-05-17T02:29:38.682Z,97712.38
2018-05-17T02:32:06.460Z,97712.70
2018-05-17T02:34:34.094Z,97710.53
2018-05-17T02:37:01.695Z,97706.39
2018-05-17T02:39:29.344Z,97707.97
2018-05-17T02:41:56.947Z,97702.29
2018-05-17T02:44:24.581Z,97705.73
2018-05-17T02:46:52.481Z,97711.12
2018-05-17T02:49:20.148Z,97707.95
2018-05-17T02:51:47.760Z,97712.05
2018-05-17T02:54:15.380Z,97710.06
2018-05-17T02:56:43.007Z,97714.56
2018-05-17T02:59:10.632Z,97713.10
2018-05-17T03:01:38.251Z,97721.67
2018-05-17T03:04:05.857Z,97721.48
2018-05-17T03:06:33.596Z,97720.20
2018-05-17T03:09:01.195Z,97717.62
2018-05-17T03:11:28.817Z,97715.94
2018-05-17T03:13:56.465Z,97714.48
2018-05-17T03:16:24.071Z,97715.67
2018-05-17T03:18:51.712Z,97717.66
2018-05-17T03:21:19.324Z,97725.53
2018-05-17T03:23:47.343Z,97718.59
2018-05-17T03:26:14.942Z,97727.61
2018-05-17T03:28:42.544Z,97727.35
2018-05-17T03:31:10.178Z,97725.30
2018-05-17T03:33:37.791Z,97727.22
2018-05-17T03:36:05.415Z,97730.92
2018-05-17T03:38:33.034Z,97721.75
2018-05-17T03:41:00.856Z,97725.39
2018-05-17T03:43:28.464Z,97725.09
2018-05-17T03:45:56.075Z,97718.83
2018-05-17T03:48:23.703Z,97723.67
2018-05-17T03:50:51.405Z,97728.14
2018-05-17T03:53:19.063Z,97727.19
2018-05-17T03:55:46.678Z,97725.34
2018-05-17T03:58:14.279Z,97719.39
2018-05-17T04:00:53.723Z,97722.98
2018-05-17T04:03:33.146Z,97723.81
2018-05-17T04:06:12.458Z,97731.48
2018-05-17T04:08:40.138Z,97730.33
2018-05-17T04:11:07.880Z,97733.53
2018-05-17T04:13:35.499Z,97734.92
2018-05-17T04:16:03.262Z,97740.44
2018-05-17T04:18:30.892Z,97737.80
2018-05-17T04:20:58.506Z,97739.85
2018-05-17T04:23:26.139Z,97740.70
2018-05-17T04:25:53.741Z,97742.28
2018-05-17T04:28:21.373Z,97737.11
2018-05-17T04:30:48.988Z,97746.59
2018-05-17T04:33:16.791Z,97753.41
2018-05-17T04:35:44.398Z,97749.70
2018-05-17T04:38:12.000Z,97745.30
2018-05-17T04:40:39.661Z,97749.59
2018-05-17T04:43:07.275Z,97749.53
2018-05-17T04:45:34.907Z,97752.37
2018-05-17T04:48:02.542Z,97752.05
2018-05-17T04:50:30.531Z,97753.23
2018-05-17T04:52:58.200Z,97750.44
2018-05-17T04:55:25.814Z,97748.25
2018-05-17T04:57:53.446Z,97752.19
2018-05-17T05:00:21.055Z,97743.64
2018-05-17T05:02:48.725Z,97753.35
2018-05-17T05:05:16.310Z,97747.05
2018-05-17T05:07:44.070Z,97747.61
2018-05-17T05:10:11.720Z,97749.34
2018-05-17T05:12:39.325Z,97752.52
2018-05-17T05:15:06.968Z,97761.74
2018-05-17T05:17:34.566Z,97756.88
2018-05-17T05:20:02.198Z,97758.53
2018-05-17T05:22:29.823Z,97756.02
2018-05-17T05:24:57.469Z,97755.78
2018-05-17T05:27:25.082Z,97750.78
2018-05-17T05:29:53.672Z,97756.38
2018-05-17T05:32:21.330Z,97759.59
2018-05-17T05:34:48.962Z,97756.05
2018-05-17T05:37:16.747Z,97766.17
2018-05-17T05:39:44.357Z,97770.70
2018-05-17T05:42:12.224Z,97772.59
2018-05-17T05:44:39.831Z,97772.21
2018-05-17T05:47:07.449Z,97767.59
2018-05-17T05:49:35.179Z,97778.61
2018-05-17T05:52:02.768Z,97773.15
2018-05-17T05:54:30.433Z,97776.56
2018-05-17T05:56:58.040Z,97769.02
2018-05-17T05:59:26.019Z,97776.16
2018-05-17T06:01:53.630Z,97767.73
2018-05-17T06:04:21.235Z,97767.80
2018-05-17T06:06:48.870Z,97769.05
2018-05-17T06:09:16.501Z,97785.65
2018-05-17T06:11:44.179Z,97781.25
2018-05-17T06:14:11.784Z,97780.12
2018-05-17T06:16:39.456Z,97785.52
2018-05-17T06:19:07.070Z,97788.73
2018-05-17T06:21:34.682Z,97786.02
2018-05-17T06:24:02.303Z,97791.77
2018-05-17T06:26:29.907Z,97788.69
2018-05-17T06:28:57.552Z,97792.98
2018-05-17T06:31:25.187Z,97797.19
2018-05-17T06:33:53.076Z,97800.46
2018-05-17T06:36:20.733Z,97803.91
2018-05-17T06:38:48.351Z,97803.47
2018-05-17T06:41:15.976Z,97801.19
2018-05-17T06:43:43.577Z,97807.88
2018-05-17T06:46:11.218Z,97807.10
2018-05-17T06:48:38.830Z,97808.13
2018-05-17T06:51:06.491Z,97815.00
2018-05-17T06:53:34.171Z,97810.06
2018-05-17T06:56:01.742Z,97801.52
2018-05-17T06:58:29.460Z,97803.81
2018-05-17T07:00:57.093Z,97804.78
2018-05-17T07:03:24.715Z,97804.95
2018-05-17T07:05:52.319Z,97799.98
2018-05-17T07:08:19.972Z,97804.45
2018-05-17T07:10:47.581Z,97808.29
2018-05-17T07:13:15.198Z,97809.70
2018-05-17T07:15:42.939Z,97808.91
2018-05-17T07:18:10.700Z,97815.47
2018-05-17T07:20:38.199Z,97827.41
2018-05-17T07:23:05.799Z,97825.20
2018-05-17T07:25:33.591Z,97825.52
2018-05-17T07:28:01.198Z,97827.99
2018-05-17T07:30:28.809Z,97827.53
2018-05-17T07:32:56.451Z,97823.36
2018-05-17T07:35:24.071Z,97833.22
2018-05-17T07:37:51.695Z,97831.04
2018-05-17T07:40:19.360Z,97834.78
2018-05-17T07:42:47.331Z,97836.56
2018-05-17T07:45:14.931Z,97840.97
2018-05-17T07:47:42.536Z,97837.52
2018-05-17T07:50:10.169Z,97843.81
2018-05-17T07:52:37.773Z,97844.51
2018-05-17T07:55:05.443Z,97852.55
2018-05-17T07:57:33.103Z,97855.30
2018-05-17T08:00:00.716Z,97849.47
2018-05-17T08:02:28.653Z,97849.77
2018-05-17T08:04:56.250Z,97849.95
2018-05-17T08:07:24.066Z,97855.42
2018-05-17T08:09:51.671Z,97859.25
2018-05-17T08:12:19.286Z,97858.70
2018-05-17T08:14:46.913Z,97858.03
2018-05-17T08:17:14.510Z,97858.86
2018-05-17T08:19:42.279Z,97862.57
2018-05-17T08:22:09.900Z,97864.42
2018-05-17T08:24:37.548Z,97868.50
2018-05-17T08:27:05.171Z,97869.14
2018-05-17T08:29:32.793Z,97866.57
2018-05-17T08:32:00.423Z,97868.79
2018-05-17T08:34:28.051Z,97874.28
2018-05-17T08:36:56.579Z,97871.70
2018-05-17T08:39:24.185Z,97879.05
2018-05-17T08:41:52.059Z,97876.47
2018-05-17T08:44:19.623Z,97875.61
2018-05-17T08:46:47.222Z,97878.39
2018-05-17T08:49:14.847Z,97879.95
2018-05-17T08:51:42.445Z,97872.00
2018-05-17T08:54:10.088Z,97882.03
2018-05-17T08:56:37.700Z,97880.94
2018-05-17T08:59:05.678Z,97881.57
2018-05-17T09:01:33.291Z,97881.80
2018-05-17T09:04:00.895Z,97879.91
2018-05-17T09:06:28.540Z,97888.67
2018-05-17T09:08:56.147Z,97883.91
2018-05-17T09:11:23.777Z,97886.54
2018-05-17T09:13:51.402Z,97883.39
2018-05-17T09:16:19.524Z,97894.70
2018-05-17T09:18:47.155Z,97895.53
2018-05-17T09:21:14.777Z,97887.63
2018-05-17T09:23:42.397Z,97893.12
2018-05-17T09:26:10.190Z,97893.23
2018-05-17T09:28:37.924Z,97895.49
2018-05-17T09:31:05.531Z,97897.81
2018-05-17T09:33:33.349Z,97900.73
2018-05-17T09:36:00.965Z,97903.77
2018-05-17T09:38:28.578Z,97904.67
2018-05-17T09:40:56.283Z,97902.69
2018-05-17T09:43:23.844Z,97914.84
2018-05-17T09:45:51.479Z,97908.78
2018-05-17T09:48:19.161Z,97909.94
2018-05-17T09:50:46.926Z,97915.47
2018-05-17T09:53:14.689Z,97911.20
2018-05-17T09:55:42.457Z,97918.05
2018-05-17T09:58:10.078Z,97919.33
2018-05-17T10:00:43.278Z,97916.08
2018-05-17T10:03:10.911Z,97912.59
2018-05-17T10:05:38.507Z,97915.69
2018-05-17T10:08:06.497Z,97912.59
2018-05-17T10:10:34.820Z,97924.45
2018-05-17T10:13:03.034Z,97916.36
2018-05-17T10:18:04.473Z,97916.50
2018-05-17T10:20:32.114Z,97917.59
2018-05-17T10:22:59.864Z,97920.77
2018-05-17T10:25:27.513Z,97921.42
2018-05-17T10:27:55.127Z,97913.16
2018-05-17T10:30:22.727Z,97924.58
2018-05-17T10:32:50.363Z,97924.16
2018-05-17T10:35:17.993Z,97925.74
2018-05-17T10:37:45.615Z,97924.41
2018-05-17T10:40:14.993Z,97925.73
2018-05-17T10:42:43.402Z,97926.53
2018-05-17T10:45:11.180Z,97929.77
2018-05-17T10:47:38.794Z,97925.39
2018-05-17T10:50:06.418Z,97929.08
2018-05-17T10:52:34.019Z,97926.23
2018-05-17T10:55:01.642Z,97925.91
2018-05-17T10:57:36.375Z,97927.11
2018-05-17T11:00:04.786Z,97923.56
2018-05-17T11:02:32.454Z,97928.47
2018-05-17T11:05:00.027Z,97931.24
2018-05-17T11:07:27.644Z,97933.86
2018-05-17T11:09:55.243Z,97935.38
2018-05-17T11:12:22.871Z,97930.73
2018-05-17T11:14:50.479Z,97930.06
2018-05-17T11:17:18.148Z,97930.02
2018-05-17T11:19:45.750Z,97937.60
2018-05-17T11:22:13.387Z,97930.34
2018-05-17T11:24:41.029Z,97935.48
2018-05-17T11:27:08.655Z,97931.69
2018-05-17T11:29:36.305Z,97932.13
2018-05-17T11:32:03.903Z,97923.13
2018-05-17T11:34:31.508Z,97930.14
2018-05-17T11:36:59.153Z,97915.89
2018-05-17T11:39:26.762Z,97914.41
2018-05-17T11:41:54.407Z,97916.74
2018-05-17T11:44:22.015Z,97914.23
2018-05-17T11:46:49.620Z,97919.52
2018-05-17T11:49:17.253Z,97915.97
2018-05-17T11:51:44.915Z,97915.63
2018-05-17T11:54:12.543Z,97912.09
2018-05-17T11:56:40.163Z,97910.03
2018-05-17T11:59:08.211Z,97916.39
2018-05-17T12:01:35.825Z,97917.31
2018-05-17T12:04:03.438Z,97903.12
2018-05-17T12:06:31.303Z,97906.66
2018-05-17T12:08:58.928Z,97908.32
2018-05-17T12:11:26.566Z,97910.45
2018-05-17T12:13:54.174Z,97911.59
2018-05-17T12:16:21.912Z,97906.77
2018-05-17T12:18:49.515Z,97900.63
2018-05-17T12:21:17.131Z,97901.47
2018-05-17T12:23:44.877Z,97907.22
2018-05-17T12:26:12.482Z,97909.48
2018-05-17T12:28:40.110Z,97913.80
2018-05-17T12:31:07.706Z,97912.64
2018-05-17T12:33:35.349Z,97910.22
2018-05-17T12:36:03.415Z,97915.28
2018-05-17T12:38:31.030Z,97913.30
2018-05-17T12:40:58.657Z,97910.50
2018-05-17T12:43:26.267Z,97914.53
2018-05-17T12:45:54.305Z,97912.78
2018-05-17T12:48:21.910Z,97907.61
2018-05-17T12:50:49.802Z,97908.98
2018-05-17T12:53:17.476Z,97912.33
2018-05-17T12:55:45.097Z,97908.76
2018-05-17T12:58:12.717Z,97909.02
2018-05-17T13:00:40.317Z,97907.30
2018-05-17T13:03:08.262Z,97910.08
2018-05-17T13:05:35.857Z,97910.68
2018-05-17T13:08:03.641Z,97911.41
2018-05-17T13:10:31.253Z,97910.80
2018-05-17T13:12:58.873Z,97914.63
2018-05-17T13:15:26.527Z,97910.04
2018-05-17T13:17:54.134Z,97914.78
2018-05-17T13:20:21.759Z,97905.16
2018-05-17T13:22:49.370Z,97903.56
2018-05-17T13:25:17.040Z,97902.20
2018-05-17T13:27:44.642Z,97908.63
2018-05-17T13:30:12.266Z,97905.45
2018-05-17T13:32:39.894Z,97901.10
2018-05-17T13:35:07.515Z,97895.32
2018-05-17T13:37:35.474Z,97900.53
2018-05-17T13:40:03.012Z,97888.23
2018-05-17T13:42:30.863Z,97895.56
2018-05-17T13:44:58.457Z,97899.73
2018-05-17T13:47:26.094Z,97897.94
2018-05-17T13:49:53.713Z,97892.42
2018-05-17T13:52:21.307Z,97894.55
2018-05-17T13:54:48.933Z,97896.45
2018-05-17T13:57:16.546Z,97900.23
2018-05-17T13:59:44.717Z,97889.84
2018-05-17T14:02:12.377Z,97892.46
2018-05-17T14:04:39.935Z,97888.73
2018-05-17T14:07:07.559Z,97893.43
2018-05-17T14:09:35.263Z,97895.70
2018-05-17T14:12:02.886Z,97894.94
2018-05-17T14:14:30.507Z,97894.62
2018-05-17T14:16:58.558Z,97889.27
2018-05-17T14:19:26.170Z,97896.67
2018-05-17T14:21:53.770Z,97884.65
2018-05-17T14:24:21.416Z,97884.02
2018-05-17T14:26:49.093Z,97886.45
2018-05-17T14:29:16.714Z,97882.75
2018-05-17T14:31:44.432Z,97881.40
2018-05-17T14:51:41.686Z,97887.80
2018-05-17T14:54:09.327Z,97884.73
2018-05-17T14:56:36.924Z,97879.31
2018-05-17T14:59:04.567Z,97884.34
2018-05-17T15:01:32.168Z,97885.06
2018-05-17T15:03:59.855Z,97891.71
2018-05-17T15:06:27.479Z,97880.03
2018-05-17T15:08:55.159Z,97883.55
2018-05-17T15:11:22.870Z,97877.14
2018-05-17T15:13:50.396Z,97882.14
2018-05-17T15:16:18.067Z,97883.23
2018-05-17T15:18:45.695Z,97880.70
2018-05-17T15:21:13.307Z,97877.72
2018-05-17T15:23:40.935Z,97876.61
2018-05-17T15:26:08.632Z,97876.41
2018-05-17T15:28:36.229Z,97878.45
2018-05-17T15:31:03.842Z,97880.38
2018-05-17T15:33:31.490Z,97881.79
2018-05-17T15:35:59.091Z,97886.42
2018-05-17T15:38:26.692Z,97883.70
2018-05-17T15:40:54.315Z,97882.36
2018-05-17T15:43:21.924Z,97881.57
2018-05-17T15:45:49.537Z,97886.03
2018-05-17T15:48:17.210Z,97888.37
2018-05-17T15:50:44.791Z,97884.16
2018-05-17T15:53:12.950Z,97885.17
2018-05-17T15:55:41.382Z,97886.47
2018-05-17T15:58:08.997Z,97880.82
2018-05-17T16:00:36.597Z,97883.08
2018-05-17T16:03:04.469Z,97889.09
2018-05-17T16:05:32.174Z,97885.09
2018-05-17T16:07:59.768Z,97892.80
2018-05-17T16:10:27.382Z,97889.91
2018-05-17T16:12:54.982Z,97888.55
2018-05-17T16:15:23.512Z,97894.16
2018-05-17T16:17:50.973Z,97896.06
2018-05-17T16:20:18.976Z,97891.78
2018-05-17T16:22:46.569Z,97891.96
2018-05-17T16:25:14.166Z,97890.77
2018-05-17T16:27:41.774Z,97887.78
2018-05-17T16:30:09.371Z,97889.37
2018-05-17T16:32:37.078Z,97893.00
2018-05-17T16:35:04.645Z,97903.06
2018-05-17T16:37:32.422Z,97894.93
2018-05-17T16:40:00.036Z,97907.23
2018-05-17T16:42:27.674Z,97908.38
2018-05-17T16:44:55.395Z,97908.02
2018-05-17T16:47:22.995Z,97911.38
2018-05-17T16:49:50.643Z,97927.21
2018-05-17T16:52:18.242Z,97922.23
2018-05-17T16:54:45.917Z,97926.17
2018-05-17T16:57:13.518Z,97924.41
2018-05-17T16:59:41.185Z,97928.62
2018-05-17T17:02:08.806Z,97936.30
2018-05-17T17:04:36.407Z,97937.78
2018-05-17T17:07:04.037Z,97943.13
2018-05-17T17:09:31.640Z,97943.24
2018-05-17T17:11:59.418Z,97937.73
2018-05-17T17:14:27.022Z,97948.19
2018-05-17T17:16:54.627Z,97947.03
2018-05-17T17:19:22.242Z,97952.41
2018-05-17T17:21:49.838Z,97951.69
2018-05-17T17:24:17.462Z,97953.93
2018-05-17T17:26:45.103Z,97957.13
2018-05-17T17:29:12.919Z,97949.27
2018-05-17T17:31:40.518Z,97956.05
2018-05-17T17:34:08.114Z,97958.33
2018-05-17T17:36:35.764Z,97957.25
2018-05-17T17:39:03.348Z,97958.56
2018-05-17T17:41:30.968Z,97953.83
2018-05-17T17:43:58.570Z,97959.34
2018-05-17T17:46:26.455Z,97962.89
2018-05-17T17:48:54.058Z,97966.42
2018-05-17T17:51:21.675Z,97980.20
2018-05-17T17:53:49.348Z,97972.45
2018-05-17T17:56:16.943Z,97986.88
2018-05-17T17:58:44.568Z,97975.27
2018-05-17T18:01:12.243Z,97972.14
2018-05-17T18:03:39.892Z,97973.11
2018-05-17T18:06:07.484Z,97979.53
2018-05-17T18:08:35.083Z,97979.48
2018-05-17T18:11:02.712Z,97976.70
2018-05-17T18:13:30.315Z,97985.80
2018-05-17T18:15:57.988Z,97988.92
2018-05-17T18:18:25.998Z,97989.77
2018-05-17T18:20:53.625Z,97992.98
2018-05-17T18:23:21.258Z,97999.07
2018-05-17T18:25:48.879Z,97998.54
2018-05-17T18:28:16.516Z,97999.64
2018-05-17T18:30:44.114Z,97996.38
2018-05-17T18:33:11.714Z,98000.05
2018-05-17T18:35:39.337Z,97992.56
2018-05-17T18:38:06.934Z,97998.11
2018-05-17T18:40:34.554Z,98001.97
2018-05-17T18:43:02.182Z,98014.77
2018-05-17T18:45:30.226Z,98010.45
2018-05-17T18:47:57.834Z,98012.16
2018-05-17T18:50:25.437Z,98026.67
2018-05-17T18:52:53.062Z,98026.52
2018-05-17T18:55:22.917Z,98024.95
2018-05-17T18:57:48.307Z,98030.51
2018-05-17T19:00:15.984Z,98029.80
2018-05-17T19:02:44.069Z,98040.50
2018-05-17T19:05:11.665Z,98035.89
2018-05-17T19:07:39.254Z,98043.39
2018-05-17T19:10:06.880Z,98042.39
2018-05-17T19:12:34.475Z,98046.02
2018-05-17T19:15:02.120Z,98045.64
2018-05-17T19:17:29.827Z,98050.97
2018-05-17T19:19:57.575Z,98058.22
2018-05-17T19:22:25.167Z,98063.37
2018-05-17T19:24:52.762Z,98067.91
2018-05-17T19:27:20.381Z,98069.05
2018-05-17T19:29:47.991Z,98074.49
2018-05-17T19:32:15.611Z,98082.48
2018-05-17T19:34:43.368Z,98078.11
2018-05-17T19:37:11.373Z,98089.09
2018-05-17T19:39:38.906Z,98079.14
2018-05-17T19:42:06.502Z,98084.33
2018-05-17T19:44:34.122Z,98084.04
2018-05-17T19:47:01.720Z,98092.89
2018-05-17T19:49:29.352Z,98091.98
2018-05-17T19:51:56.948Z,98102.69
2018-05-17T19:54:24.813Z,98099.85
2018-05-17T19:56:52.427Z,98099.09
2018-05-17T19:59:20.160Z,98099.79
2018-05-17T20:01:47.727Z,98100.19
2018-05-17T20:04:15.335Z,98106.66
2018-05-17T20:06:42.948Z,98114.23
2018-05-17T20:09:10.570Z,98109.87
2018-05-17T20:11:38.459Z,98111.30
2018-05-17T20:14:06.071Z,98116.27
2018-05-17T20:16:33.670Z,98107.56
2018-05-17T20:19:01.308Z,98111.70
2018-05-17T20:21:28.908Z,98114.78
2018-05-17T20:23:56.557Z,98115.05
2018-05-17T20:26:24.158Z,98121.48
2018-05-17T20:28:51.802Z,98124.36
2018-05-17T20:31:19.400Z,98119.79
2018-05-17T20:33:46.996Z,98118.52
2018-05-17T20:36:14.626Z,98122.04
2018-05-17T20:38:42.240Z,98120.44
2018-05-17T20:41:09.859Z,98124.94
2018-05-17T20:43:37.800Z,98124.86
2018-05-17T20:46:05.949Z,98125.26
2018-05-17T20:48:33.553Z,98128.20
2018-05-17T20:51:01.150Z,98129.56
2018-05-17T20:53:28.817Z,98133.10
2018-05-17T20:55:56.410Z,98134.85
2018-05-17T20:58:24.051Z,98138.63
2018-05-17T21:00:51.648Z,98134.72
2018-05-17T21:03:19.330Z,98141.56
2018-05-17T21:05:46.930Z,98142.30
2018-05-17T21:08:14.536Z,98142.77
2018-05-17T21:10:42.149Z,98140.87
2018-05-17T21:13:09.929Z,98136.14
2018-05-17T21:15:37.564Z,98134.94
2018-05-17T21:18:05.175Z,98137.59
2018-05-17T21:20:33.016Z,98140.78
2018-05-17T21:23:00.668Z,98142.85
2018-05-17T21:25:28.262Z,98147.48
2018-05-17T21:27:55.883Z,98146.29
2018-05-17T21:30:23.497Z,98141.89
2018-05-17T21:32:51.135Z,98150.66
2018-05-17T21:35:18.840Z,98151.15
2018-05-17T21:37:46.440Z,98148.20
2018-05-17T21:40:14.079Z,98145.31
2018-05-17T21:42:41.682Z,98151.47
2018-05-17T21:45:09.526Z,98148.19
2018-05-17T21:47:37.119Z,98151.91
2018-05-17T21:50:04.783Z,98148.03
2018-05-17T21:52:32.695Z,98146.91
2018-05-17T21:55:00.445Z,98150.66
2018-05-17T21:57:28.068Z,98152.09
2018-05-17T21:59:55.666Z,98156.30
2018-05-17T22:02:23.341Z,98153.17
2018-05-17T22:04:50.930Z,98158.64
2018-05-17T22:07:18.527Z,98161.88
2018-05-17T22:09:46.152Z,98163.63
2018-05-17T22:12:13.819Z,98166.08
2018-05-17T22:14:41.440Z,98165.60
2018-05-17T22:17:09.031Z,98161.31
2018-05-17T22:19:36.930Z,98167.62
2018-05-17T22:22:04.523Z,98165.25
2018-05-17T22:24:32.111Z,98161.88
2018-05-17T22:26:59.724Z,98166.45
2018-05-17T22:29:27.321Z,98170.63
2018-05-17T22:31:54.971Z,98167.52
2018-05-17T22:34:22.561Z,98167.75
2018-05-17T22:36:50.220Z,98173.85
2018-05-17T22:39:17.816Z,98170.95
2018-05-17T22:41:45.418Z,98169.30
2018-05-17T22:44:13.048Z,98163.63
2018-05-17T22:46:40.646Z,98165.69
2018-05-17T22:49:08.267Z,98164.81
2018-05-17T22:51:35.870Z,98157.06
2018-05-17T22:54:03.543Z,98163.23
2018-05-17T22:56:42.926Z,98159.55
2018-05-17T22:59:10.809Z,98163.40
2018-05-17T23:01:38.382Z,98158.33
2018-05-17T23:04:05.985Z,98151.48
2018-05-17T23:06:33.615Z,98151.97
2018-05-17T23:09:01.216Z,98150.14
2018-05-17T23:11:28.891Z,98146.41
2018-05-17T23:13:56.466Z,98149.55
2018-05-17T23:16:24.124Z,98150.53
2018-05-17T23:18:52.007Z,98149.02
2018-05-17T23:21:19.603Z,98146.23
2018-05-17T23:23:47.231Z,98139.70
2018-05-17T23:26:14.851Z,98134.33
2018-05-17T23:28:42.475Z,98143.56
2018-05-17T23:31:10.088Z,98143.09
2018-05-17T23:33:38.151Z,98144.89
2018-05-17T23:36:05.747Z,98144.89
2018-05-17T23:38:33.342Z,98143.57
2018-05-17T23:41:12.710Z,98141.27
2018-05-17T23:43:40.298Z,98142.27
2018-05-17T23:46:07.915Z,98147.44
2018-05-17T23:48:35.512Z,98146.16
2018-05-17T23:51:03.358Z,98146.68
2018-05-17T23:53:30.954Z,98144.66
2018-05-17T23:55:58.554Z,98144.38
2018-05-17T23:58:26.170Z,98142.47
